createdAt,value
2023-03-20T00:00:03.774Z,87
2023-03-20T00:03:29.028Z,88
2023-03-20T00:06:54.174Z,88
2023-03-20T00:10:19.370Z,87
2023-03-20T00:13:44.614Z,88
2023-03-20T00:17:09.836Z,87
2023-03-20T00:20:35.365Z,87
2023-03-20T00:24:00.263Z,88
2023-03-20T00:27:25.462Z,87
2023-03-20T00:30:50.665Z,87
2023-03-20T00:34:15.836Z,87
2023-03-20T00:37:41.039Z,87
2023-03-20T00:41:06.246Z,87
2023-03-20T00:44:31.446Z,86
2023-03-20T00:47:56.669Z,85
2023-03-20T00:51:21.868Z,85
2023-03-20T00:54:47.052Z,84
2023-03-20T00:58:12.248Z,85
2023-03-20T01:01:37.465Z,85
2023-03-20T01:05:02.709Z,87
2023-03-20T01:08:27.859Z,86
2023-03-20T01:11:54.128Z,87
2023-03-20T01:15:18.308Z,86
2023-03-20T01:18:43.522Z,87
2023-03-20T01:22:08.745Z,89
2023-03-20T01:25:34.138Z,91
2023-03-20T01:28:59.119Z,92
2023-03-20T01:32:24.327Z,92
2023-03-20T01:35:49.556Z,93
2023-03-20T01:39:14.754Z,93
2023-03-20T01:42:39.934Z,93
2023-03-20T01:46:05.152Z,93
2023-03-20T01:49:30.309Z,93
2023-03-20T01:52:55.527Z,92
2023-03-20T01:56:20.758Z,92
2023-03-20T01:59:45.950Z,92
2023-03-20T02:03:11.162Z,92
2023-03-20T02:06:36.389Z,91
2023-03-20T02:10:01.586Z,91
2023-03-20T02:13:26.820Z,91
2023-03-20T02:16:52.014Z,91
2023-03-20T02:20:17.197Z,91
2023-03-20T02:23:42.417Z,91
2023-03-20T02:27:07.611Z,91
2023-03-20T02:30:32.863Z,91
2023-03-20T02:33:58.040Z,91
2023-03-20T02:37:23.240Z,91
2023-03-20T02:40:48.442Z,90
2023-03-20T02:44:13.640Z,90
2023-03-20T02:47:38.886Z,91
2023-03-20T02:51:04.034Z,91
2023-03-20T02:54:29.242Z,92
2023-03-20T02:57:54.459Z,92
2023-03-20T03:01:19.676Z,92
2023-03-20T03:04:44.900Z,92
2023-03-20T03:08:10.090Z,92
2023-03-20T03:11:35.288Z,93
2023-03-20T03:15:00.490Z,93
2023-03-20T03:18:25.692Z,93
2023-03-20T03:21:50.930Z,92
2023-03-20T03:25:16.118Z,92
2023-03-20T03:28:41.314Z,92
2023-03-20T03:32:06.526Z,92
2023-03-20T03:35:31.729Z,92
2023-03-20T03:38:57.016Z,92
2023-03-20T03:42:22.195Z,92
2023-03-20T03:45:47.396Z,92
2023-03-20T03:49:12.618Z,92
2023-03-20T03:52:37.824Z,92
2023-03-20T03:56:03.113Z,92
2023-03-20T03:59:28.226Z,93
2023-03-20T04:02:53.441Z,93
2023-03-20T04:06:18.633Z,94
2023-03-20T04:09:43.824Z,94
2023-03-20T04:13:09.044Z,94
2023-03-20T04:16:34.311Z,94
2023-03-20T04:19:59.470Z,94
2023-03-20T04:23:24.733Z,94
2023-03-20T04:26:49.982Z,94
2023-03-20T04:30:15.227Z,94
2023-03-20T04:33:40.610Z,94
2023-03-20T04:37:05.837Z,94
2023-03-20T04:40:31.058Z,94
2023-03-20T04:43:56.294Z,94
2023-03-20T04:47:22.037Z,94
2023-03-20T04:50:47.223Z,94
2023-03-20T04:54:12.456Z,94
2023-03-20T04:57:38.353Z,94
2023-03-20T05:01:03.612Z,94
2023-03-20T05:04:28.949Z,94
2023-03-20T05:07:54.039Z,94
2023-03-20T05:11:19.277Z,94
2023-03-20T05:14:44.476Z,94
2023-03-20T05:18:09.705Z,94
2023-03-20T05:21:34.959Z,94
2023-03-20T05:25:00.106Z,94
2023-03-20T05:28:25.315Z,94
2023-03-20T05:31:50.527Z,94
2023-03-20T05:35:15.765Z,93
2023-03-20T05:38:41.001Z,93
2023-03-20T05:42:06.216Z,93
2023-03-20T05:45:31.386Z,93
2023-03-20T05:48:56.570Z,93
2023-03-20T05:52:21.826Z,93
2023-03-20T05:55:47.113Z,93
2023-03-20T05:59:12.326Z,93
2023-03-20T06:02:37.552Z,93
2023-03-20T06:06:02.772Z,92
2023-03-20T06:09:28.065Z,92
2023-03-20T06:12:53.306Z,92
2023-03-20T06:16:18.638Z,91
2023-03-20T06:19:43.841Z,91
2023-03-20T06:23:09.116Z,91
2023-03-20T06:26:34.403Z,91
2023-03-20T06:29:59.640Z,92
2023-03-20T06:33:24.811Z,92
2023-03-20T06:36:49.994Z,93
2023-03-20T06:40:15.179Z,92
2023-03-20T06:43:40.692Z,92
2023-03-20T06:47:05.899Z,92
2023-03-20T06:50:31.081Z,92
2023-03-20T06:53:56.305Z,93
2023-03-20T06:57:21.525Z,93
2023-03-20T07:00:46.947Z,93
2023-03-20T07:04:12.186Z,93
2023-03-20T07:07:37.387Z,93
2023-03-20T07:11:02.625Z,93
2023-03-20T07:14:27.849Z,93
2023-03-20T07:17:53.081Z,93
2023-03-20T07:21:18.428Z,93
2023-03-20T07:24:46.002Z,92
2023-03-20T07:28:08.831Z,92
2023-03-20T07:31:34.098Z,92
2023-03-20T07:34:59.236Z,92
2023-03-20T07:38:24.497Z,92
2023-03-20T07:41:49.696Z,92
2023-03-20T07:45:14.895Z,92
2023-03-20T07:48:40.128Z,92
2023-03-20T07:52:05.356Z,92
2023-03-20T07:55:30.564Z,92
2023-03-20T07:58:55.749Z,92
2023-03-20T08:02:20.969Z,93
2023-03-20T08:05:47.371Z,94
2023-03-20T08:09:11.384Z,94
2023-03-20T08:12:36.630Z,94
2023-03-20T08:16:01.802Z,94
2023-03-20T08:19:27.048Z,93
2023-03-20T08:22:52.243Z,94
2023-03-20T08:26:17.460Z,93
2023-03-20T08:29:42.677Z,93
2023-03-20T08:33:07.901Z,93
2023-03-20T08:36:33.099Z,93
2023-03-20T08:39:58.308Z,92
2023-03-20T08:43:23.537Z,92
2023-03-20T08:46:48.947Z,92
2023-03-20T08:50:14.001Z,92
2023-03-20T08:53:39.221Z,92
2023-03-20T08:57:04.445Z,91
2023-03-20T09:00:29.683Z,91
2023-03-20T09:03:54.921Z,91
2023-03-20T09:07:20.111Z,91
2023-03-20T09:10:45.343Z,91
2023-03-20T09:14:10.560Z,91
2023-03-20T09:17:35.794Z,91
2023-03-20T09:21:01.017Z,91
2023-03-20T09:24:26.211Z,92
2023-03-20T09:27:51.432Z,91
2023-03-20T09:31:16.686Z,91
2023-03-20T09:34:41.907Z,90
2023-03-20T09:38:07.194Z,90
2023-03-20T09:41:32.444Z,91
2023-03-20T09:44:57.629Z,91
2023-03-20T09:48:22.879Z,92
2023-03-20T09:51:48.082Z,92
2023-03-20T09:55:13.457Z,92
2023-03-20T09:58:38.557Z,92
2023-03-20T10:02:03.841Z,92
2023-03-20T10:05:29.185Z,92
2023-03-20T10:08:54.315Z,93
2023-03-20T10:12:19.620Z,93
2023-03-20T10:15:44.817Z,93
2023-03-20T10:19:10.039Z,92
2023-03-20T10:22:35.298Z,92
2023-03-20T10:26:00.508Z,93
2023-03-20T10:29:25.788Z,93
2023-03-20T10:32:51.005Z,94
2023-03-20T10:36:16.230Z,94
2023-03-20T10:39:41.480Z,94
2023-03-20T10:43:06.694Z,94
2023-03-20T10:46:31.966Z,94
2023-03-20T10:49:57.083Z,94
2023-03-20T10:53:22.429Z,93
2023-03-20T10:56:47.672Z,92
2023-03-20T11:00:13.070Z,93
2023-03-20T11:03:38.314Z,94
2023-03-20T11:07:03.490Z,94
2023-03-20T11:10:28.702Z,93
2023-03-20T11:13:53.895Z,93
2023-03-20T11:17:19.104Z,94
2023-03-20T11:20:44.317Z,94
2023-03-20T11:24:11.606Z,94
2023-03-20T11:27:34.847Z,94
2023-03-20T11:31:06.742Z,94
2023-03-20T11:34:25.236Z,94
2023-03-20T11:37:50.523Z,94
2023-03-20T11:41:15.686Z,94
2023-03-20T11:44:40.938Z,94
2023-03-20T11:48:06.170Z,94
2023-03-20T11:51:31.379Z,95
2023-03-20T11:54:56.593Z,95
2023-03-20T11:58:21.787Z,94
2023-03-20T12:01:47.133Z,95
2023-03-20T12:05:13.673Z,94
2023-03-20T12:08:37.416Z,93
2023-03-20T12:12:02.706Z,93
2023-03-20T12:15:27.830Z,92
2023-03-20T12:18:53.038Z,92
2023-03-20T12:22:18.246Z,92
2023-03-20T12:25:43.462Z,91
2023-03-20T12:29:08.724Z,90
2023-03-20T12:32:33.946Z,89
2023-03-20T12:35:59.218Z,90
2023-03-20T12:39:24.355Z,90
2023-03-20T12:42:49.627Z,90
2023-03-20T12:46:14.921Z,89
2023-03-20T12:49:41.682Z,89
2023-03-20T12:53:06.900Z,88
2023-03-20T12:56:32.146Z,88
2023-03-20T12:59:57.343Z,88
2023-03-20T13:03:22.595Z,87
2023-03-20T13:06:47.809Z,87
2023-03-20T13:10:13.255Z,87
2023-03-20T13:13:38.476Z,87
2023-03-20T13:17:03.670Z,86
2023-03-20T13:20:28.907Z,86
2023-03-20T13:23:54.100Z,86
2023-03-20T13:27:19.354Z,86
2023-03-20T13:30:44.589Z,86
2023-03-20T13:34:09.788Z,87
2023-03-20T13:37:35.145Z,87
2023-03-20T13:41:00.326Z,87
2023-03-20T13:44:25.556Z,87
2023-03-20T13:47:50.874Z,86
2023-03-20T13:51:16.062Z,86
2023-03-20T13:54:41.288Z,86
2023-03-20T13:58:06.469Z,86
2023-03-20T14:01:31.706Z,86
2023-03-20T14:04:56.892Z,87
2023-03-20T14:08:22.102Z,86
2023-03-20T14:11:47.375Z,86
2023-03-20T14:15:12.569Z,85
2023-03-20T14:18:37.800Z,86
2023-03-20T14:22:03.036Z,85
2023-03-20T14:25:28.224Z,86
2023-03-20T14:28:53.520Z,84
2023-03-20T14:32:18.708Z,84
2023-03-20T14:35:43.983Z,83
2023-03-20T14:39:09.212Z,83
2023-03-20T14:42:34.404Z,84
2023-03-20T14:45:59.607Z,84
2023-03-20T14:49:24.839Z,84
2023-03-20T14:52:50.057Z,84
2023-03-20T14:56:15.281Z,83
2023-03-20T14:59:40.555Z,83
2023-03-20T15:03:05.807Z,84
2023-03-20T15:40:07.473Z,87
2023-03-20T15:43:32.683Z,88
2023-03-20T15:46:57.895Z,89
2023-03-20T15:50:23.164Z,89
2023-03-20T15:53:48.423Z,89
2023-03-20T15:57:14.438Z,89
2023-03-20T16:00:39.655Z,89
2023-03-20T16:04:04.951Z,90
2023-03-20T16:07:30.168Z,90
2023-03-20T16:10:55.448Z,89
2023-03-20T16:14:20.678Z,88
2023-03-20T16:17:45.915Z,87
2023-03-20T16:21:11.101Z,86
2023-03-20T16:24:36.317Z,86
2023-03-20T16:28:01.531Z,86
2023-03-20T16:31:26.871Z,86
2023-03-20T16:34:51.980Z,85
2023-03-20T16:38:17.217Z,85
2023-03-20T16:41:42.400Z,84
2023-03-20T16:45:07.617Z,85
2023-03-20T16:48:32.894Z,84
2023-03-20T16:51:59.645Z,84
2023-03-20T16:55:23.249Z,84
2023-03-20T16:58:48.596Z,85
2023-03-20T17:02:13.735Z,85
2023-03-20T17:05:38.936Z,86
2023-03-20T17:09:04.144Z,86
2023-03-20T17:12:29.343Z,86
2023-03-20T17:15:54.534Z,86
2023-03-20T17:19:20.331Z,86
2023-03-20T17:22:45.595Z,86
2023-03-20T17:26:10.803Z,86
2023-03-20T17:29:35.960Z,87
2023-03-20T17:33:01.262Z,86
2023-03-20T17:36:27.148Z,86
2023-03-20T17:39:52.370Z,87
2023-03-20T17:43:17.579Z,87
2023-03-20T17:46:56.463Z,87
2023-03-20T17:50:08.074Z,87
2023-03-20T17:53:33.585Z,87
2023-03-20T17:56:58.831Z,86
2023-03-20T18:00:24.104Z,86
2023-03-20T18:03:49.195Z,86
2023-03-20T18:07:14.406Z,86
2023-03-20T18:10:40.023Z,87
2023-03-20T18:14:04.871Z,87
2023-03-20T18:17:30.072Z,88
2023-03-20T18:20:55.304Z,88
2023-03-20T18:24:20.849Z,88
2023-03-20T18:27:46.153Z,88
2023-03-20T18:31:11.591Z,89
2023-03-20T18:34:36.746Z,89
2023-03-20T18:38:01.969Z,89
2023-03-20T18:41:27.173Z,90
2023-03-20T18:44:52.566Z,89
2023-03-20T18:48:17.888Z,89
2023-03-20T18:51:43.083Z,89
2023-03-20T18:55:08.365Z,89
2023-03-20T18:58:33.699Z,90
2023-03-20T19:01:59.016Z,90
2023-03-20T19:05:24.328Z,90
2023-03-20T19:08:49.633Z,90
2023-03-20T19:12:14.964Z,90
2023-03-20T19:15:40.320Z,90
2023-03-20T19:19:05.574Z,91
2023-03-20T19:22:30.928Z,91
2023-03-20T19:25:56.078Z,91
2023-03-20T19:29:21.319Z,91
2023-03-20T19:32:46.726Z,91
2023-03-20T19:36:12.192Z,92
2023-03-20T19:39:37.168Z,92
2023-03-20T19:43:03.775Z,92
2023-03-20T19:46:39.496Z,92
2023-03-20T19:49:52.882Z,93
2023-03-20T19:53:18.131Z,93
2023-03-20T19:56:43.479Z,93
2023-03-20T20:00:54.302Z,92
2023-03-20T20:03:34.037Z,92
2023-03-20T20:07:36.209Z,92
2023-03-20T20:10:24.535Z,92
2023-03-20T20:14:07.983Z,92
2023-03-20T20:17:15.046Z,92
2023-03-20T20:21:11.931Z,92
2023-03-20T20:24:05.599Z,91
2023-03-20T20:27:30.965Z,91
2023-03-20T20:30:56.093Z,91
2023-03-20T20:41:11.993Z,91
2023-03-20T20:44:37.252Z,91
2023-03-20T20:48:02.525Z,90
2023-03-20T20:51:27.775Z,90
2023-03-20T20:54:52.997Z,90
2023-03-20T20:58:18.201Z,90
2023-03-20T21:01:43.771Z,91
2023-03-20T21:05:08.695Z,91
2023-03-20T21:08:33.905Z,91
2023-03-20T21:11:59.151Z,91
2023-03-20T21:15:24.395Z,91
2023-03-20T21:18:49.627Z,90
2023-03-20T21:22:14.865Z,90
2023-03-20T21:25:42.109Z,90
2023-03-20T21:29:05.246Z,88
2023-03-20T21:32:30.460Z,88
2023-03-20T21:35:55.749Z,87
2023-03-20T21:39:20.945Z,87
2023-03-20T21:42:46.117Z,85
2023-03-20T21:46:46.649Z,86
2023-03-20T21:50:31.024Z,85
2023-03-20T21:57:04.900Z,85
2023-03-20T22:00:31.526Z,85
2023-03-20T22:03:34.848Z,85
2023-03-20T22:11:01.146Z,85
2023-03-20T22:14:25.104Z,85
2023-03-20T22:17:41.414Z,85
2023-03-20T22:21:06.594Z,85
2023-03-20T22:31:26.533Z,85
2023-03-20T22:38:08.909Z,84
2023-03-20T22:41:59.108Z,84
2023-03-20T22:47:45.422Z,84
2023-03-20T22:51:10.737Z,84
2023-03-20T22:54:35.792Z,84
2023-03-20T22:58:07.179Z,83
2023-03-20T23:01:26.294Z,83
2023-03-20T23:04:51.634Z,84
2023-03-20T23:08:16.840Z,83
2023-03-20T23:11:42.135Z,84
2023-03-20T23:15:07.408Z,84
2023-03-20T23:18:32.704Z,83
2023-03-20T23:21:58.012Z,83
2023-03-20T23:25:36.253Z,83
2023-03-20T23:28:48.588Z,84
2023-03-20T23:32:13.894Z,84
2023-03-20T23:35:39.194Z,84
2023-03-20T23:39:04.495Z,84
2023-03-20T23:42:30.985Z,84
2023-03-20T23:45:55.068Z,84
2023-03-20T23:49:20.377Z,84
2023-03-20T23:52:49.866Z,84
2023-03-20T23:56:10.909Z,84
2023-03-20T23:59:36.189Z,84
